Big Bear Station Historical Data
Daily Summary for March 1, 2019 Units:  English    Metric   Both
Next Day »
Daily Weekly Monthly Yearly Custom
  High: Low: Average:
Temperature: 49.6 °F 35.2 °F 41.4 °F
Dew Point: 36.0 °F 18.9 °F 28.1 °F
Humidity: 90% 40% 60%
Wind Speed: 8.3mph 0.0mph 1.9mph
Wind Gust: -999.0mph - -
Wind- - WNW
Pressure: 23.52 in 23.45 in -
Precipitation: 0.00 in    
Historical Graphs
 
 
Tabular Data for March 1, 2019
Time Temperature Dew Point Pressure Wind Wind Speed Wind Gust Humidity Rainfall Rate (Hourly)
00:06 35.2 °F 26.7 °F 23.51 in Calm   -999.0 mph 71% 0.00 in
00:22 35.4 °F 27.6 °F 23.51 in Calm   -999.0 mph 73% 0.00 in
00:37 35.4 °F 27.9 °F 23.51 in Calm   -999.0 mph 74% 0.00 in
00:52 36.5 °F 26.2 °F 23.52 in NW 5.3 mph -999.0 mph 66% 0.00 in
01:07 38.1 °F 26.6 °F 23.51 in WNW 1.7 mph -999.0 mph 63% 0.00 in
01:23 38.3 °F 25.6 °F 23.51 in Calm   -999.0 mph 60% 0.00 in
01:38 37.6 °F 25.8 °F 23.51 in Calm   -999.0 mph 62% 0.00 in
01:53 37.6 °F 24.2 °F 23.51 in Calm   -999.0 mph 58% 0.00 in
02:09 37.0 °F 26.0 °F 23.50 in Calm   -999.0 mph 64% 0.00 in
02:24 36.7 °F 25.3 °F 23.50 in Calm   -999.0 mph 63% 0.00 in
02:39 37.8 °F 24.7 °F 23.49 in Calm   -999.0 mph 59% 0.00 in
02:54 37.6 °F 25.8 °F 23.49 in Calm   -999.0 mph 62% 0.00 in
03:10 37.6 °F 24.2 °F 23.49 in Calm   -999.0 mph 58% 0.00 in
03:25 38.1 °F 23.8 °F 23.48 in Calm   -999.0 mph 56% 0.00 in
03:40 38.1 °F 22.9 °F 23.48 in Calm   -999.0 mph 54% 0.00 in
03:55 39.9 °F 19.2 °F 23.47 in West 1.7 mph -999.0 mph 43% 0.00 in
04:10 40.8 °F 18.9 °F 23.46 in NE 4.7 mph -999.0 mph 41% 0.00 in
04:26 41.4 °F 20.6 °F 23.46 in NW 2.2 mph -999.0 mph 43% 0.00 in
04:42 40.8 °F 19.5 °F 23.47 in WNW 4.2 mph -999.0 mph 42% 0.00 in
04:57 40.8 °F 20.6 °F 23.48 in Calm   -999.0 mph 44% 0.00 in
05:12 40.3 °F 22.2 °F 23.48 in WNW 3.2 mph -999.0 mph 48% 0.00 in
05:27 39.4 °F 22.8 °F 23.48 in Calm   -999.0 mph 51% 0.00 in
05:43 38.8 °F 22.7 °F 23.48 in Calm   -999.0 mph 52% 0.00 in
05:58 38.8 °F 23.1 °F 23.48 in Calm   -999.0 mph 53% 0.00 in
06:13 38.8 °F 25.3 °F 23.48 in WNW 3.7 mph -999.0 mph 58% 0.00 in
06:28 38.7 °F 26.4 °F 23.49 in West 2.7 mph -999.0 mph 61% 0.00 in
06:43 37.8 °F 26.3 °F 23.48 in NNW 2.7 mph -999.0 mph 63% 0.00 in
06:59 37.2 °F 25.8 °F 23.49 in SE 1.1 mph -999.0 mph 63% 0.00 in
07:14 37.2 °F 25.4 °F 23.49 in Calm   -999.0 mph 62% 0.00 in
07:29 38.7 °F 24.8 °F 23.50 in NNW 1.7 mph -999.0 mph 57% 0.00 in
07:44 39.7 °F 23.5 °F 23.51 in SW 3.2 mph -999.0 mph 52% 0.00 in
08:00 40.6 °F 22.9 °F 23.50 in NW 1.1 mph -999.0 mph 49% 0.00 in
08:15 41.9 °F 23.1 °F 23.50 in NW 2.7 mph -999.0 mph 47% 0.00 in
08:30 42.4 °F 23.1 °F 23.51 in Calm   -999.0 mph 46% 0.00 in
08:46 43.9 °F 23.4 °F 23.51 in NW 1.7 mph -999.0 mph 44% 0.00 in
09:01 43.9 °F 24.4 °F 23.51 in Calm   -999.0 mph 46% 0.00 in
09:16 44.4 °F 26.4 °F 23.51 in Calm   -999.0 mph 49% 0.00 in
09:31 44.1 °F 26.1 °F 23.51 in NW 1.7 mph -999.0 mph 49% 0.00 in
09:47 44.1 °F 26.6 °F 23.50 in NW 3.2 mph -999.0 mph 50% 0.00 in
10:02 45.5 °F 25.9 °F 23.51 in North 3.2 mph -999.0 mph 46% 0.00 in
10:17 46.8 °F 27.1 °F 23.50 in NNW 4.2 mph -999.0 mph 46% 0.00 in
10:32 48.2 °F 26.7 °F 23.51 in WNW 2.7 mph -999.0 mph 43% 0.00 in
10:48 49.1 °F 25.8 °F 23.50 in NW 1.1 mph -999.0 mph 40% 0.00 in
11:03 49.3 °F 27.7 °F 23.50 in NNE 3.7 mph -999.0 mph 43% 0.00 in
11:18 49.1 °F 27.6 °F 23.50 in NNW 2.2 mph -999.0 mph 43% 0.00 in
11:34 48.6 °F 28.2 °F 23.50 in NW 4.2 mph -999.0 mph 45% 0.00 in
11:49 47.8 °F 28.5 °F 23.50 in NW 3.2 mph -999.0 mph 47% 0.00 in
12:04 47.1 °F 29.9 °F 23.49 in WNW 5.3 mph -999.0 mph 51% 0.00 in
12:19 49.6 °F 27.4 °F 23.48 in WSW 2.2 mph -999.0 mph 42% 0.00 in
12:34 48.6 °F 30.3 °F 23.48 in SW 2.2 mph -999.0 mph 49% 0.00 in
12:50 48.9 °F 28.5 °F 23.48 in NW 3.2 mph -999.0 mph 45% 0.00 in
13:05 47.7 °F 31.4 °F 23.48 in NNW 2.7 mph -999.0 mph 53% 0.00 in
13:20 48.0 °F 31.2 °F 23.48 in SSE 4.2 mph -999.0 mph 52% 0.00 in
13:35 48.2 °F 31.9 °F 23.47 in WNW 1.7 mph -999.0 mph 53% 0.00 in
13:51 47.5 °F 30.3 °F 23.47 in NNW 8.3 mph -999.0 mph 51% 0.00 in
14:06 45.0 °F 35.1 °F 23.46 in NW 2.2 mph -999.0 mph 68% 0.00 in
14:21 46.6 °F 27.9 °F 23.47 in NW 1.1 mph -999.0 mph 48% 0.00 in
14:36 46.9 °F 27.7 °F 23.46 in North 1.7 mph -999.0 mph 47% 0.00 in
14:52 46.8 °F 27.6 °F 23.46 in West 6.3 mph -999.0 mph 47% 0.00 in
15:07 46.4 °F 25.7 °F 23.47 in WNW 2.7 mph -999.0 mph 44% 0.00 in
15:22 47.1 °F 26.8 °F 23.47 in West 1.7 mph -999.0 mph 45% 0.00 in
15:38 45.0 °F 29.8 °F 23.47 in NNW 4.2 mph -999.0 mph 55% 0.00 in
15:53 43.5 °F 30.5 °F 23.47 in NNW 3.7 mph -999.0 mph 60% 0.00 in
16:08 43.0 °F 28.4 °F 23.46 in SW 2.7 mph -999.0 mph 56% 0.00 in
16:23 42.4 °F 27.8 °F 23.47 in North 1.7 mph -999.0 mph 56% 0.00 in
16:38 42.1 °F 25.7 °F 23.46 in NNW 5.8 mph -999.0 mph 52% 0.00 in
16:54 41.7 °F 24.4 °F 23.47 in Calm   -999.0 mph 50% 0.00 in
17:09 41.4 °F 25.5 °F 23.47 in West 2.2 mph -999.0 mph 53% 0.00 in
17:24 40.6 °F 27.0 °F 23.46 in Calm   -999.0 mph 58% 0.00 in
17:39 40.1 °F 26.5 °F 23.47 in Calm   -999.0 mph 58% 0.00 in
17:55 39.9 °F 27.9 °F 23.46 in NNW 4.2 mph -999.0 mph 62% 0.00 in
18:10 39.6 °F 30.6 °F 23.47 in Calm   -999.0 mph 70% 0.00 in
18:25 39.6 °F 31.3 °F 23.47 in Calm   -999.0 mph 72% 0.00 in
18:41 39.9 °F 34.2 °F 23.47 in WNW 3.2 mph -999.0 mph 80% 0.00 in
18:57 39.7 °F 34.3 °F 23.47 in Calm   -999.0 mph 81% 0.00 in
19:12 39.2 °F 33.2 °F 23.47 in WSW 1.7 mph -999.0 mph 79% 0.00 in
19:27 39.2 °F 33.2 °F 23.47 in NW 2.7 mph -999.0 mph 79% 0.00 in
19:42 39.0 °F 32.7 °F 23.47 in WNW 3.2 mph -999.0 mph 78% 0.00 in
19:57 39.0 °F 33.4 °F 23.48 in Calm   -999.0 mph 80% 0.00 in
20:13 39.2 °F 34.2 °F 23.47 in NW 2.7 mph -999.0 mph 82% 0.00 in
20:28 39.0 °F 34.0 °F 23.48 in Calm   -999.0 mph 82% 0.00 in
20:43 39.2 °F 34.5 °F 23.48 in WNW 3.2 mph -999.0 mph 83% 0.00 in
20:58 39.0 °F 34.6 °F 23.48 in Calm   -999.0 mph 84% 0.00 in
21:13 38.8 °F 34.4 °F 23.48 in Calm   -999.0 mph 84% 0.00 in
21:29 38.8 °F 34.7 °F 23.47 in North 3.7 mph -999.0 mph 85% 0.00 in
21:44 38.7 °F 35.2 °F 23.47 in East 1.7 mph -999.0 mph 87% 0.00 in
21:59 38.7 °F 35.2 °F 23.47 in SSW 1.1 mph -999.0 mph 87% 0.00 in
22:14 38.3 °F 35.1 °F 23.47 in Calm   -999.0 mph 88% 0.00 in
22:29 38.3 °F 35.1 °F 23.47 in NW 5.3 mph -999.0 mph 88% 0.00 in
22:45 38.3 °F 35.1 °F 23.47 in Calm   -999.0 mph 88% 0.00 in
23:00 38.3 °F 35.1 °F 23.46 in Calm   -999.0 mph 88% 0.00 in
23:15 38.7 °F 36.0 °F 23.45 in NW 2.7 mph -999.0 mph 90% 0.00 in
23:31 38.5 °F 35.8 °F 23.45 in South 2.7 mph -999.0 mph 90% 0.00 in
23:46 38.7 °F 36.0 °F 23.45 in NW 2.2 mph -999.0 mph 90% 0.00 in
Big Bear CA Weather